createdAt,value
2019-02-07T00:00:38.533Z,0.75
2019-02-07T00:03:10.374Z,0.79
2019-02-07T00:05:43.271Z,0.71
2019-02-07T00:08:15.095Z,0.69
2019-02-07T00:10:47.053Z,0.71
2019-02-07T00:13:18.975Z,0.78
2019-02-07T00:15:50.811Z,0.72
2019-02-07T00:18:22.616Z,0.70
2019-02-07T00:20:57.493Z,0.63
2019-02-07T00:23:29.350Z,0.64
2019-02-07T00:26:01.189Z,0.61
2019-02-07T00:28:34.311Z,0.61
2019-02-07T00:31:06.254Z,0.62
2019-02-07T00:33:38.524Z,0.63
2019-02-07T00:36:10.371Z,0.68
2019-02-07T00:38:42.200Z,0.69
2019-02-07T00:41:14.053Z,0.70
2019-02-07T00:43:45.947Z,0.73
2019-02-07T00:46:18.084Z,0.68
2019-02-07T00:48:49.931Z,0.65
2019-02-07T00:51:21.778Z,0.65
2019-02-07T00:53:54.887Z,0.64
2019-02-07T00:56:26.725Z,0.67
2019-02-07T00:58:58.540Z,0.66
2019-02-07T01:01:30.459Z,0.66
2019-02-07T01:04:02.287Z,0.65
2019-02-07T01:06:34.114Z,0.63
2019-02-07T01:09:08.707Z,0.61
2019-02-07T01:11:40.565Z,0.61
2019-02-07T01:14:12.405Z,0.62
2019-02-07T01:16:44.375Z,0.62
2019-02-07T01:19:16.197Z,0.57
2019-02-07T01:21:48.404Z,0.52
2019-02-07T01:24:20.228Z,0.54
2019-02-07T01:26:52.079Z,0.52
2019-02-07T01:29:23.917Z,0.54
2019-02-07T01:31:55.758Z,0.54
2019-02-07T01:34:27.868Z,0.55
2019-02-07T01:36:59.695Z,0.55
2019-02-07T01:39:31.548Z,0.55
2019-02-07T01:42:03.586Z,0.48
2019-02-07T01:44:35.432Z,0.39
2019-02-07T01:47:07.622Z,0.40
2019-02-07T01:49:39.453Z,0.41
2019-02-07T01:52:11.257Z,0.46
2019-02-07T01:54:43.105Z,0.48
2019-02-07T01:57:14.932Z,0.52
2019-02-07T01:59:50.295Z,0.51
2019-02-07T02:02:22.123Z,0.48
2019-02-07T02:04:53.991Z,0.40
2019-02-07T02:07:25.847Z,0.30
2019-02-07T02:09:57.681Z,0.28
2019-02-07T02:12:29.504Z,0.22
2019-02-07T02:15:01.392Z,0.24
2019-02-07T02:17:33.255Z,0.33
2019-02-07T02:20:06.692Z,0.27
2019-02-07T02:22:38.540Z,0.29
2019-02-07T02:25:11.292Z,0.35
2019-02-07T02:27:43.339Z,0.34
2019-02-07T02:30:30.479Z,0.35
2019-02-07T02:33:02.713Z,0.32
2019-02-07T02:35:34.530Z,0.33
2019-02-07T02:38:06.802Z,0.33
2019-02-07T02:40:38.758Z,0.30
2019-02-07T02:43:10.602Z,0.27
2019-02-07T02:45:42.808Z,0.31
2019-02-07T02:48:16.247Z,0.28
2019-02-07T02:50:48.084Z,0.30
2019-02-07T02:53:21.022Z,0.28
2019-02-07T02:55:58.473Z,0.30
2019-02-07T02:58:30.324Z,0.26
2019-02-07T03:01:20.982Z,0.32
2019-02-07T03:04:11.710Z,0.29
2019-02-07T03:07:05.561Z,0.22
2019-02-07T03:09:56.295Z,0.22
2019-02-07T03:13:05.517Z,0.20
2019-02-07T03:16:14.809Z,0.17
2019-02-07T03:19:12.101Z,0.18
2019-02-07T03:22:04.316Z,0.15
2019-02-07T03:25:04.312Z,0.08
2019-02-07T03:28:04.610Z,0.05
2019-02-07T03:31:10.769Z,0.02
2019-02-07T03:34:07.646Z,-0.02
2019-02-07T03:36:55.426Z,0.04
2019-02-07T03:39:49.200Z,0.07
2019-02-07T03:42:39.931Z,0.00
2019-02-07T03:46:02.110Z,-0.05
2019-02-07T03:48:33.453Z,-0.05
2019-02-07T03:51:24.648Z,-0.03
2019-02-07T03:54:07.463Z,0.02
2019-02-07T03:56:56.970Z,-0.03
2019-02-07T03:59:59.645Z,-0.01
2019-02-07T04:02:45.867Z,-0.08
2019-02-07T04:05:35.334Z,0.01
2019-02-07T04:08:26.061Z,-0.01
2019-02-07T04:11:19.198Z,-0.10
2019-02-07T04:14:05.883Z,-0.17
2019-02-07T04:16:56.581Z,-0.18
2019-02-07T04:19:45.952Z,-0.19
2019-02-07T04:22:45.768Z,-0.20
2019-02-07T04:25:36.446Z,-0.26
2019-02-07T04:28:29.921Z,-0.27
2019-02-07T04:31:19.763Z,-0.26
2019-02-07T04:34:19.778Z,-0.29
2019-02-07T04:37:10.446Z,-0.29
2019-02-07T04:40:01.149Z,-0.29
2019-02-07T04:42:58.102Z,-0.27
2019-02-07T04:45:51.605Z,-0.28
2019-02-07T04:48:51.290Z,-0.26
2019-02-07T04:51:31.574Z,-0.17
2019-02-07T04:54:21.110Z,-0.13
2019-02-07T04:57:17.251Z,-0.09
2019-02-07T05:00:11.235Z,-0.08
2019-02-07T05:03:01.922Z,-0.14
2019-02-07T05:05:58.552Z,-0.17
2019-02-07T05:08:44.305Z,-0.12
2019-02-07T05:11:51.665Z,-0.10
2019-02-07T05:14:38.903Z,-0.08
2019-02-07T05:17:36.830Z,-0.11
2019-02-07T05:20:34.471Z,-0.09
2019-02-07T05:23:30.601Z,-0.01
2019-02-07T05:26:15.060Z,0.02
2019-02-07T05:29:04.710Z,0.04
2019-02-07T05:31:55.414Z,0.05
2019-02-07T05:34:49.316Z,0.09
2019-02-07T05:37:40.021Z,0.12
2019-02-07T05:40:20.571Z,0.17
2019-02-07T05:43:20.667Z,0.17
2019-02-07T05:46:00.209Z,0.14
2019-02-07T05:49:06.075Z,0.14
2019-02-07T05:51:59.811Z,0.12
2019-02-07T05:54:53.538Z,0.17
2019-02-07T05:57:34.145Z,0.25
2019-02-07T06:00:27.760Z,0.23
2019-02-07T06:03:17.449Z,0.17
2019-02-07T06:06:17.495Z,0.17
2019-02-07T06:09:11.002Z,0.30
2019-02-07T06:12:00.424Z,0.31
2019-02-07T06:14:52.700Z,0.33
2019-02-07T06:17:42.423Z,0.28
2019-02-07T06:20:31.148Z,0.33
2019-02-07T06:23:20.575Z,0.30
2019-02-07T06:26:20.705Z,0.29
2019-02-07T06:29:07.887Z,0.28
2019-02-07T06:32:07.690Z,0.25
2019-02-07T06:34:57.301Z,0.21
2019-02-07T06:37:49.025Z,0.24
2019-02-07T06:40:47.441Z,0.25
2019-02-07T06:43:29.777Z,0.27
2019-02-07T06:46:20.472Z,0.37
2019-02-07T06:49:18.288Z,0.39
2019-02-07T06:52:07.910Z,0.33
2019-02-07T06:54:57.507Z,0.37
2019-02-07T06:57:56.588Z,0.38
2019-02-07T07:00:54.936Z,0.40
2019-02-07T07:03:44.298Z,0.40
2019-02-07T07:06:34.989Z,0.46
2019-02-07T07:09:32.240Z,0.58
2019-02-07T07:12:15.994Z,0.72
2019-02-07T07:15:03.751Z,0.82
2019-02-07T07:17:46.560Z,0.80
2019-02-07T07:20:41.261Z,0.81
2019-02-07T07:23:31.976Z,0.79
2019-02-07T07:26:21.673Z,0.90
2019-02-07T07:29:14.376Z,0.91
2019-02-07T07:32:07.396Z,0.91
2019-02-07T07:34:58.295Z,0.87
2019-02-07T07:37:46.108Z,0.92
2019-02-07T07:40:46.191Z,0.94
2019-02-07T07:43:42.759Z,1.03
2019-02-07T07:46:44.083Z,1.12
2019-02-07T07:49:29.452Z,1.12
2019-02-07T07:52:22.925Z,1.17
2019-02-07T07:55:09.207Z,1.21
2019-02-07T07:57:59.917Z,1.27
2019-02-07T08:00:59.747Z,1.29
2019-02-07T08:03:42.581Z,1.33
2019-02-07T08:06:51.843Z,1.44
2019-02-07T08:09:39.312Z,1.54
2019-02-07T08:12:29.235Z,1.62
2019-02-07T08:15:19.022Z,1.55
2019-02-07T08:18:12.662Z,1.55
2019-02-07T08:21:03.303Z,1.58
2019-02-07T08:23:53.280Z,1.66
2019-02-07T08:26:44.898Z,1.77
2019-02-07T08:29:47.737Z,1.84
2019-02-07T08:32:38.959Z,1.87
2019-02-07T08:35:30.944Z,1.98
2019-02-07T08:38:40.073Z,2.11
2019-02-07T08:41:30.797Z,2.20
2019-02-07T08:44:20.019Z,2.30
2019-02-07T08:47:21.641Z,2.44
2019-02-07T08:50:11.525Z,2.46
2019-02-07T08:53:14.315Z,2.56
2019-02-07T08:56:05.035Z,2.65
2019-02-07T08:58:56.011Z,2.66
2019-02-07T09:01:46.711Z,2.62
2019-02-07T09:04:38.152Z,2.72
2019-02-07T09:07:26.889Z,2.81
2019-02-07T09:10:15.253Z,2.91
2019-02-07T09:13:04.975Z,3.00
2019-02-07T09:16:14.863Z,3.05
2019-02-07T09:18:58.574Z,3.12
2019-02-07T09:21:47.218Z,3.28
2019-02-07T09:24:31.963Z,3.37
2019-02-07T09:27:21.493Z,3.45
2019-02-07T09:30:27.469Z,3.49
2019-02-07T09:33:27.099Z,3.55
2019-02-07T09:36:16.716Z,3.58
2019-02-07T09:39:15.357Z,3.65
2019-02-07T09:42:06.220Z,3.72
2019-02-07T09:45:06.272Z,3.78
2019-02-07T09:47:51.498Z,3.85
2019-02-07T09:50:42.270Z,3.93
2019-02-07T09:53:30.445Z,3.90
2019-02-07T09:56:28.701Z,3.88
2019-02-07T09:59:14.314Z,3.96
2019-02-07T10:01:52.971Z,4.04
2019-02-07T10:04:43.712Z,4.11
2019-02-07T10:07:23.077Z,4.14
2019-02-07T10:10:16.856Z,4.22
2019-02-07T10:13:14.732Z,4.29
2019-02-07T10:16:03.483Z,4.29
2019-02-07T10:19:10.572Z,4.23
2019-02-07T10:22:07.504Z,4.28
2019-02-07T10:24:57.063Z,4.30
2019-02-07T10:27:49.545Z,4.32
2019-02-07T10:30:44.223Z,4.33
2019-02-07T10:33:35.039Z,4.31
2019-02-07T10:36:31.680Z,4.32
2019-02-07T10:39:40.630Z,4.39
2019-02-07T10:42:37.784Z,4.44
2019-02-07T10:45:43.511Z,4.43
2019-02-07T10:48:43.976Z,4.45
2019-02-07T10:51:25.788Z,4.46
2019-02-07T10:54:15.440Z,4.47
2019-02-07T10:57:23.881Z,4.52
2019-02-07T11:00:18.097Z,4.53
2019-02-07T11:03:04.593Z,4.55
2019-02-07T11:06:03.653Z,4.61
2019-02-07T11:09:03.292Z,4.70
2019-02-07T11:11:48.144Z,4.80
2019-02-07T11:14:39.167Z,4.82
2019-02-07T11:17:24.788Z,4.86
2019-02-07T11:20:15.233Z,4.82
2019-02-07T11:23:13.648Z,4.81
2019-02-07T11:26:15.036Z,4.92
2019-02-07T11:29:14.862Z,4.93
2019-02-07T11:32:17.627Z,4.96
2019-02-07T11:34:59.243Z,4.97
2019-02-07T11:37:48.558Z,5.02
2019-02-07T11:40:58.970Z,5.08
2019-02-07T11:43:42.373Z,5.07
2019-02-07T11:46:49.104Z,5.07
2019-02-07T11:49:34.613Z,5.06
2019-02-07T11:52:22.755Z,5.01
2019-02-07T11:55:15.133Z,4.95
2019-02-07T11:58:15.611Z,4.88
2019-02-07T12:01:18.166Z,4.73
2019-02-07T12:04:11.363Z,4.73
2019-02-07T12:07:02.094Z,4.65
2019-02-07T12:09:56.817Z,4.66
2019-02-07T12:12:52.592Z,4.70
2019-02-07T12:15:44.824Z,4.78
2019-02-07T12:18:42.009Z,4.84
2019-02-07T12:21:32.765Z,4.87
2019-02-07T12:24:26.911Z,4.87
2019-02-07T12:27:20.148Z,4.90
2019-02-07T12:30:17.441Z,4.94
2019-02-07T12:33:13.846Z,4.99
2019-02-07T12:35:59.932Z,4.99
2019-02-07T12:38:57.023Z,5.04
2019-02-07T12:41:45.951Z,5.13
2019-02-07T12:44:32.175Z,5.21
2019-02-07T12:47:18.318Z,5.27
2019-02-07T12:50:14.229Z,5.27
2019-02-07T12:52:56.075Z,5.25
2019-02-07T12:55:52.298Z,5.23
2019-02-07T12:58:47.802Z,5.24
2019-02-07T13:01:44.717Z,5.30
2019-02-07T13:04:32.136Z,5.35
2019-02-07T13:07:37.774Z,5.40
2019-02-07T13:10:49.979Z,5.51
2019-02-07T13:13:35.663Z,5.61
2019-02-07T13:16:24.578Z,5.71
2019-02-07T13:19:14.011Z,5.82
2019-02-07T13:22:04.236Z,5.89
2019-02-07T13:24:55.769Z,5.96
2019-02-07T13:27:42.292Z,6.01
2019-02-07T13:30:36.135Z,6.09
2019-02-07T13:33:41.676Z,6.24
2019-02-07T13:36:37.862Z,6.33
2019-02-07T13:39:25.953Z,6.37
2019-02-07T13:42:15.482Z,6.36
2019-02-07T13:45:07.021Z,6.42
2019-02-07T13:48:06.315Z,6.53
2019-02-07T13:50:51.558Z,6.61
2019-02-07T13:53:51.100Z,6.68
2019-02-07T13:56:44.331Z,6.75
2019-02-07T13:59:33.795Z,6.87
2019-02-07T14:02:20.082Z,6.95
2019-02-07T14:05:10.507Z,7.03
2019-02-07T14:08:04.801Z,7.05
2019-02-07T14:10:58.244Z,7.07
2019-02-07T14:13:50.711Z,7.11
2019-02-07T14:16:40.415Z,7.10
2019-02-07T14:19:31.490Z,7.05
2019-02-07T14:22:17.842Z,7.01
2019-02-07T14:25:17.135Z,7.00
2019-02-07T14:28:06.023Z,7.04
2019-02-07T14:30:49.502Z,7.08
2019-02-07T14:33:47.015Z,7.13
2019-02-07T14:36:37.171Z,7.17
2019-02-07T14:39:29.716Z,7.23
2019-02-07T14:42:14.613Z,7.27
2019-02-07T14:45:03.683Z,7.34
2019-02-07T14:47:35.329Z,7.35
2019-02-07T14:50:14.937Z,7.34
2019-02-07T14:52:41.675Z,7.27
2019-02-07T14:55:15.199Z,7.24
2019-02-07T14:57:46.671Z,7.20
2019-02-07T15:00:22.508Z,7.17
2019-02-07T15:02:59.511Z,7.12
2019-02-07T15:05:34.362Z,7.09
2019-02-07T15:08:06.491Z,7.09
2019-02-07T15:10:38.129Z,7.02
2019-02-07T15:13:09.727Z,6.97
2019-02-07T15:15:44.007Z,6.84
2019-02-07T15:18:15.590Z,6.73
2019-02-07T15:20:47.466Z,6.64
2019-02-07T15:23:23.935Z,6.56
2019-02-07T15:25:55.479Z,6.49
2019-02-07T15:28:28.152Z,6.47
2019-02-07T15:31:01.328Z,6.49
2019-02-07T15:33:32.996Z,6.48
2019-02-07T15:36:06.287Z,6.47
2019-02-07T15:38:39.609Z,6.46
2019-02-07T15:41:18.861Z,6.43
2019-02-07T15:43:57.911Z,6.40
2019-02-07T15:46:36.537Z,6.39
2019-02-07T15:49:07.741Z,6.38
2019-02-07T15:51:40.045Z,6.38
2019-02-07T15:54:13.218Z,6.40
2019-02-07T15:56:46.455Z,6.38
2019-02-07T15:59:33.983Z,6.40
2019-02-07T16:02:18.176Z,6.41
2019-02-07T16:04:51.311Z,6.32
2019-02-07T16:07:22.927Z,6.30
2019-02-07T16:09:54.915Z,6.32
2019-02-07T16:12:29.481Z,6.29
2019-02-07T16:15:06.968Z,6.31
2019-02-07T16:17:38.743Z,6.37
2019-02-07T16:20:15.431Z,6.42
2019-02-07T16:22:50.176Z,6.42
2019-02-07T16:25:24.053Z,6.33
2019-02-07T16:27:57.513Z,6.26
2019-02-07T16:30:30.614Z,6.23
2019-02-07T16:33:05.240Z,6.26
2019-02-07T16:35:40.071Z,6.24
2019-02-07T16:38:15.580Z,6.23
2019-02-07T16:40:51.566Z,6.23
2019-02-07T16:43:21.981Z,6.23
2019-02-07T16:45:56.389Z,6.17
2019-02-07T16:48:27.974Z,6.17
2019-02-07T16:51:05.864Z,6.19
2019-02-07T16:53:46.151Z,6.13
2019-02-07T16:56:20.761Z,6.13
2019-02-07T16:58:52.397Z,6.11
2019-02-07T17:01:25.526Z,6.08
2019-02-07T17:03:58.026Z,6.01
2019-02-07T17:06:31.950Z,5.99
2019-02-07T17:09:09.138Z,6.04
2019-02-07T17:11:40.689Z,6.08
2019-02-07T17:14:14.013Z,6.08
2019-02-07T17:16:47.174Z,6.07
2019-02-07T17:19:19.847Z,6.04
2019-02-07T17:21:57.988Z,5.99
2019-02-07T17:24:34.915Z,5.94
2019-02-07T17:27:07.954Z,5.95
2019-02-07T17:29:39.591Z,5.85
2019-02-07T17:32:12.290Z,5.80
2019-02-07T17:34:43.862Z,5.77
2019-02-07T17:37:15.482Z,5.74
2019-02-07T17:39:51.039Z,5.71
2019-02-07T17:42:22.626Z,5.70
2019-02-07T17:44:55.487Z,5.69
2019-02-07T17:47:29.517Z,5.68
2019-02-07T17:50:03.937Z,5.70
2019-02-07T17:52:39.200Z,5.66
2019-02-07T17:55:15.023Z,5.64
2019-02-07T17:57:49.502Z,5.65
2019-02-07T18:00:44.187Z,5.61
2019-02-07T18:03:17.236Z,5.60
2019-02-07T18:05:51.398Z,5.59
2019-02-07T18:08:24.842Z,5.60
2019-02-07T18:11:07.393Z,5.54
2019-02-07T18:13:40.427Z,5.52
2019-02-07T18:16:15.279Z,5.54
2019-02-07T18:18:47.447Z,5.49
2019-02-07T18:21:19.009Z,5.46
2019-02-07T18:23:53.395Z,5.44
2019-02-07T18:26:24.964Z,5.43
2019-02-07T18:28:58.169Z,5.34
2019-02-07T18:31:29.737Z,5.34
2019-02-07T18:34:01.620Z,5.31
2019-02-07T18:36:35.912Z,5.29
2019-02-07T18:39:10.703Z,5.24
2019-02-07T18:41:42.381Z,5.18
2019-02-07T18:44:14.559Z,5.16
2019-02-07T18:46:50.468Z,5.15
2019-02-07T18:49:23.569Z,5.12
2019-02-07T18:51:55.215Z,5.10
2019-02-07T18:54:28.085Z,5.08
2019-02-07T18:57:05.729Z,5.07
2019-02-07T18:59:40.277Z,5.04
2019-02-07T19:02:14.807Z,5.04
2019-02-07T19:04:46.700Z,5.03
2019-02-07T19:07:18.850Z,4.97
2019-02-07T19:09:53.438Z,4.95
2019-02-07T19:12:25.292Z,4.89
2019-02-07T19:15:07.612Z,4.87
2019-02-07T19:17:39.243Z,4.83
2019-02-07T19:20:19.889Z,4.78
2019-02-07T19:22:52.873Z,4.77
2019-02-07T19:25:24.440Z,4.77
2019-02-07T19:28:05.299Z,4.76
2019-02-07T19:30:38.365Z,4.75
2019-02-07T19:33:09.967Z,4.68
2019-02-07T19:35:43.907Z,4.64
2019-02-07T19:38:17.030Z,4.62
2019-02-07T19:40:48.776Z,4.59
2019-02-07T19:43:20.775Z,4.63
2019-02-07T19:45:59.954Z,4.64
2019-02-07T19:48:33.559Z,4.57
2019-02-07T19:51:08.391Z,4.44
2019-02-07T19:53:40.025Z,4.39
2019-02-07T19:56:14.651Z,4.32
2019-02-07T19:58:49.009Z,4.29
2019-02-07T20:01:22.982Z,4.30
2019-02-07T20:03:54.948Z,4.24
2019-02-07T20:06:29.810Z,4.20
2019-02-07T20:09:06.096Z,4.21
2019-02-07T20:11:41.062Z,4.25
2019-02-07T20:14:14.876Z,4.26
2019-02-07T20:16:51.511Z,4.30
2019-02-07T20:19:23.119Z,4.24
2019-02-07T20:21:58.706Z,4.17
2019-02-07T20:24:30.821Z,4.26
2019-02-07T20:27:06.047Z,4.09
2019-02-07T20:29:40.092Z,3.97
2019-02-07T20:32:17.442Z,4.00
2019-02-07T20:34:52.547Z,3.93
2019-02-07T20:37:26.326Z,3.89
2019-02-07T20:39:58.192Z,3.89
2019-02-07T20:42:36.151Z,3.89
2019-02-07T20:45:11.049Z,3.87
2019-02-07T20:47:46.224Z,3.84
2019-02-07T20:50:22.040Z,3.80
2019-02-07T20:52:55.650Z,3.77
2019-02-07T20:55:28.243Z,3.73
2019-02-07T20:58:03.446Z,3.69
2019-02-07T21:00:37.127Z,3.66
2019-02-07T21:03:12.107Z,3.68
2019-02-07T21:05:51.968Z,3.66
2019-02-07T21:08:25.557Z,3.67
2019-02-07T21:10:57.517Z,3.67
2019-02-07T21:13:31.148Z,3.56
2019-02-07T21:16:04.147Z,3.53
2019-02-07T21:18:37.470Z,3.51
2019-02-07T21:21:11.152Z,3.49
2019-02-07T21:23:44.839Z,3.48
2019-02-07T21:26:21.503Z,3.46
2019-02-07T21:28:54.362Z,3.43
2019-02-07T21:31:28.013Z,3.33
2019-02-07T21:34:02.925Z,3.31
2019-02-07T21:36:35.968Z,3.31
2019-02-07T21:39:14.933Z,3.31
2019-02-07T21:41:48.635Z,3.30
2019-02-07T21:44:22.542Z,3.33
2019-02-07T21:47:00.121Z,3.27
2019-02-07T21:49:31.993Z,3.23
2019-02-07T21:52:03.888Z,3.25
2019-02-07T21:54:39.209Z,3.26
2019-02-07T21:57:13.772Z,3.24
2019-02-07T21:59:49.760Z,3.20
2019-02-07T22:02:23.853Z,3.16
2019-02-07T22:04:58.366Z,3.11
2019-02-07T22:07:37.197Z,3.03
2019-02-07T22:10:10.331Z,3.03
2019-02-07T22:12:44.616Z,3.06
2019-02-07T22:15:20.484Z,3.10
2019-02-07T22:17:54.913Z,3.10
2019-02-07T22:20:29.331Z,3.05
2019-02-07T22:23:03.544Z,3.07
2019-02-07T22:25:39.956Z,3.09
2019-02-07T22:28:14.082Z,3.05
2019-02-07T22:30:45.949Z,2.99
2019-02-07T22:33:21.044Z,2.99
2019-02-07T22:35:55.736Z,2.99
2019-02-07T22:38:27.708Z,2.97
2019-02-07T22:41:00.924Z,2.94
2019-02-07T22:43:32.773Z,2.94
2019-02-07T22:46:04.731Z,2.93
2019-02-07T22:48:39.428Z,2.94
2019-02-07T22:51:11.319Z,2.96
2019-02-07T22:53:46.193Z,2.98
2019-02-07T22:56:20.774Z,2.98
2019-02-07T22:58:53.799Z,3.05
2019-02-07T23:01:52.573Z,3.05
2019-02-07T23:04:27.880Z,3.06
2019-02-07T23:07:02.698Z,3.13
2019-02-07T23:09:34.534Z,3.17
2019-02-07T23:12:06.978Z,3.19
2019-02-07T23:14:38.867Z,3.18
2019-02-07T23:17:10.727Z,3.19
2019-02-07T23:19:42.551Z,3.12
2019-02-07T23:22:15.727Z,3.07
2019-02-07T23:24:47.587Z,3.09
2019-02-07T23:27:21.757Z,3.10
2019-02-07T23:29:56.536Z,3.10
2019-02-07T23:32:30.871Z,3.13
2019-02-07T23:35:02.898Z,3.13
2019-02-07T23:37:37.063Z,3.19
2019-02-07T23:40:14.969Z,3.21
2019-02-07T23:42:46.934Z,3.24
2019-02-07T23:45:22.598Z,3.27
2019-02-07T23:47:57.081Z,3.28
2019-02-07T23:50:32.014Z,3.31
2019-02-07T23:53:14.224Z,3.36
2019-02-07T23:55:42.007Z,3.38
2019-02-07T23:58:16.125Z,3.36
